Port Isabel, Texas
Current Conditions -  °F | °C
As of 11:15 AM on Sunday 21 Dec 2014 (Local Time) from KSPL Reporting Station
Broken Clouds Broken Clouds  
Wind Chill: 64°   Ceiling: 4600
Heat Index: 64°   Visibility: 2.5mi
Dew Point: 63°   Wind: 12mph
Humidity: 94%   Direction: 80°E
Pressure: 30.05"   Gusts: NA
Location:  26.07°N, 97.21°W
Report Text: KSPL 211715Z AUTO 08010KT 2 1/2SM SCT029 BKN046 18/17 A3005 RMK AO1 LTG DSNT SW
Loading
Personal Weather Stations






























Interactive Weather Map New forecast layout! Learn more

10-Day Weather Forecast

Advertisements
Track Severe Weather on mobile